sensor_id;sensor_type;location;lat;lon;timestamp;P1;durP1;ratioP1;P2;durP2;ratioP2
85065;SDS011;75401;52.588;13.224;2024-01-06T00:01:49;3.43;;;3.13;;
85065;SDS011;75401;52.588;13.224;2024-01-06T00:04:14;4.40;;;3.72;;
85065;SDS011;75401;52.588;13.224;2024-01-06T00:06:40;3.97;;;3.47;;
85065;SDS011;75401;52.588;13.224;2024-01-06T00:09:06;3.87;;;3.40;;
85065;SDS011;75401;52.588;13.224;2024-01-06T00:11:32;3.47;;;3.15;;
85065;SDS011;75401;52.588;13.224;2024-01-06T00:13:57;3.40;;;3.10;;
85065;SDS011;75401;52.588;13.224;2024-01-06T00:16:22;3.80;;;3.03;;
85065;SDS011;75401;52.588;13.224;2024-01-06T00:18:47;3.00;;;2.70;;
85065;SDS011;75401;52.588;13.224;2024-01-06T00:21:13;3.28;;;2.97;;
85065;SDS011;75401;52.588;13.224;2024-01-06T00:23:39;4.03;;;3.30;;
85065;SDS011;75401;52.588;13.224;2024-01-06T00:26:06;3.90;;;3.30;;
85065;SDS011;75401;52.588;13.224;2024-01-06T00:28:32;3.60;;;3.30;;
85065;SDS011;75401;52.588;13.224;2024-01-06T00:30:57;3.53;;;3.00;;
85065;SDS011;75401;52.588;13.224;2024-01-06T00:33:22;3.75;;;3.20;;
85065;SDS011;75401;52.588;13.224;2024-01-06T00:35:48;3.27;;;2.93;;
85065;SDS011;75401;52.588;13.224;2024-01-06T00:38:13;3.60;;;3.30;;
85065;SDS011;75401;52.588;13.224;2024-01-06T00:40:38;3.97;;;3.58;;
85065;SDS011;75401;52.588;13.224;2024-01-06T00:43:05;2.97;;;2.63;;
85065;SDS011;75401;52.588;13.224;2024-01-06T00:45:30;4.18;;;3.50;;
85065;SDS011;75401;52.588;13.224;2024-01-06T00:47:56;3.50;;;3.10;;
85065;SDS011;75401;52.588;13.224;2024-01-06T00:50:21;3.60;;;3.27;;
85065;SDS011;75401;52.588;13.224;2024-01-06T00:52:46;3.33;;;2.93;;
85065;SDS011;75401;52.588;13.224;2024-01-06T00:55:12;3.93;;;3.30;;
85065;SDS011;75401;52.588;13.224;2024-01-06T00:57:37;3.90;;;3.43;;
85065;SDS011;75401;52.588;13.224;2024-01-06T01:00:04;3.37;;;3.03;;
85065;SDS011;75401;52.588;13.224;2024-01-06T01:02:30;3.53;;;3.00;;
85065;SDS011;75401;52.588;13.224;2024-01-06T01:04:55;3.90;;;2.80;;
85065;SDS011;75401;52.588;13.224;2024-01-06T01:07:21;3.60;;;3.30;;
85065;SDS011;75401;52.588;13.224;2024-01-06T01:09:46;3.17;;;2.83;;
85065;SDS011;75401;52.588;13.224;2024-01-06T01:12:11;3.73;;;2.80;;
85065;SDS011;75401;52.588;13.224;2024-01-06T01:14:36;3.67;;;2.60;;
85065;SDS011;75401;52.588;13.224;2024-01-06T01:17:03;3.50;;;2.87;;
85065;SDS011;75401;52.588;13.224;2024-01-06T01:19:28;3.83;;;3.42;;
85065;SDS011;75401;52.588;13.224;2024-01-06T01:21:54;3.90;;;3.20;;
85065;SDS011;75401;52.588;13.224;2024-01-06T01:24:19;3.10;;;2.77;;
85065;SDS011;75401;52.588;13.224;2024-01-06T01:26:44;4.17;;;2.90;;
85065;SDS011;75401;52.588;13.224;2024-01-06T01:29:09;2.90;;;2.60;;
85065;SDS011;75401;52.588;13.224;2024-01-06T01:31:35;3.70;;;3.07;;
85065;SDS011;75401;52.588;13.224;2024-01-06T01:34:01;3.47;;;3.17;;
85065;SDS011;75401;52.588;13.224;2024-01-06T01:36:26;3.40;;;2.83;;
85065;SDS011;75401;52.588;13.224;2024-01-06T01:38:52;3.50;;;3.20;;
85065;SDS011;75401;52.588;13.224;2024-01-06T01:41:17;4.27;;;3.40;;
85065;SDS011;75401;52.588;13.224;2024-01-06T01:43:42;3.87;;;2.83;;
85065;SDS011;75401;52.588;13.224;2024-01-06T01:46:07;3.73;;;3.07;;
85065;SDS011;75401;52.588;13.224;2024-01-06T01:48:33;3.80;;;3.23;;
85065;SDS011;75401;52.588;13.224;2024-01-06T01:50:59;3.80;;;3.13;;
85065;SDS011;75401;52.588;13.224;2024-01-06T01:53:25;3.55;;;2.80;;
85065;SDS011;75401;52.588;13.224;2024-01-06T01:55:51;3.72;;;3.13;;
85065;SDS011;75401;52.588;13.224;2024-01-06T01:58:17;3.70;;;2.47;;
85065;SDS011;75401;52.588;13.224;2024-01-06T02:00:43;3.58;;;3.28;;
85065;SDS011;75401;52.588;13.224;2024-01-06T02:03:08;3.30;;;2.77;;
85065;SDS011;75401;52.588;13.224;2024-01-06T02:05:35;4.00;;;3.10;;
85065;SDS011;75401;52.588;13.224;2024-01-06T02:08:02;3.33;;;2.93;;
85065;SDS011;75401;52.588;13.224;2024-01-06T02:10:28;3.22;;;2.90;;
85065;SDS011;75401;52.588;13.224;2024-01-06T02:12:53;3.47;;;3.17;;
85065;SDS011;75401;52.588;13.224;2024-01-06T02:15:19;3.73;;;3.00;;
85065;SDS011;75401;52.588;13.224;2024-01-06T02:17:44;3.92;;;3.00;;
85065;SDS011;75401;52.588;13.224;2024-01-06T02:20:10;3.47;;;2.80;;
85065;SDS011;75401;52.588;13.224;2024-01-06T02:22:38;3.40;;;3.08;;
85065;SDS011;75401;52.588;13.224;2024-01-06T02:25:03;4.03;;;3.38;;
85065;SDS011;75401;52.588;13.224;2024-01-06T02:27:32;4.05;;;2.88;;
85065;SDS011;75401;52.588;13.224;2024-01-06T02:29:57;3.57;;;3.00;;
85065;SDS011;75401;52.588;13.224;2024-01-06T02:32:22;3.30;;;2.80;;
85065;SDS011;75401;52.588;13.224;2024-01-06T02:34:47;3.37;;;2.87;;
85065;SDS011;75401;52.588;13.224;2024-01-06T02:37:13;3.27;;;2.90;;
85065;SDS011;75401;52.588;13.224;2024-01-06T02:39:39;3.10;;;2.60;;
85065;SDS011;75401;52.588;13.224;2024-01-06T02:42:05;3.10;;;2.80;;
85065;SDS011;75401;52.588;13.224;2024-01-06T02:44:31;3.53;;;3.05;;
85065;SDS011;75401;52.588;13.224;2024-01-06T02:46:56;3.30;;;3.00;;
85065;SDS011;75401;52.588;13.224;2024-01-06T02:49:21;3.53;;;2.97;;
85065;SDS011;75401;52.588;13.224;2024-01-06T02:51:46;3.67;;;3.17;;
85065;SDS011;75401;52.588;13.224;2024-01-06T02:54:12;3.60;;;3.17;;
85065;SDS011;75401;52.588;13.224;2024-01-06T02:56:38;3.53;;;3.10;;
85065;SDS011;75401;52.588;13.224;2024-01-06T02:59:04;3.95;;;3.03;;
85065;SDS011;75401;52.588;13.224;2024-01-06T03:01:29;3.80;;;2.90;;
85065;SDS011;75401;52.588;13.224;2024-01-06T03:03:54;3.50;;;2.80;;
85065;SDS011;75401;52.588;13.224;2024-01-06T03:06:19;3.47;;;3.10;;
85065;SDS011;75401;52.588;13.224;2024-01-06T03:08:45;3.23;;;2.73;;
85065;SDS011;75401;52.588;13.224;2024-01-06T03:11:10;3.63;;;3.13;;
85065;SDS011;75401;52.588;13.224;2024-01-06T03:13:37;3.95;;;3.10;;
85065;SDS011;75401;52.588;13.224;2024-01-06T03:16:03;3.30;;;2.97;;
85065;SDS011;75401;52.588;13.224;2024-01-06T03:18:28;3.63;;;2.90;;
85065;SDS011;75401;52.588;13.224;2024-01-06T03:20:54;4.47;;;3.20;;
85065;SDS011;75401;52.588;13.224;2024-01-06T03:23:19;4.30;;;3.30;;
85065;SDS011;75401;52.588;13.224;2024-01-06T03:25:44;3.80;;;2.60;;
85065;SDS011;75401;52.588;13.224;2024-01-06T03:28:09;4.13;;;3.30;;
85065;SDS011;75401;52.588;13.224;2024-01-06T03:30:36;3.57;;;3.10;;
85065;SDS011;75401;52.588;13.224;2024-01-06T03:33:01;4.25;;;3.17;;
85065;SDS011;75401;52.588;13.224;2024-01-06T03:35:27;3.40;;;3.10;;
85065;SDS011;75401;52.588;13.224;2024-01-06T03:37:52;4.68;;;2.90;;
85065;SDS011;75401;52.588;13.224;2024-01-06T03:40:17;3.80;;;3.23;;
85065;SDS011;75401;52.588;13.224;2024-01-06T03:42:43;3.17;;;2.80;;
85065;SDS011;75401;52.588;13.224;2024-01-06T03:45:08;4.57;;;3.20;;
85065;SDS011;75401;52.588;13.224;2024-01-06T03:47:35;4.18;;;3.38;;
85065;SDS011;75401;52.588;13.224;2024-01-06T03:50:00;5.00;;;3.38;;
85065;SDS011;75401;52.588;13.224;2024-01-06T03:52:25;3.63;;;2.93;;
85065;SDS011;75401;52.588;13.224;2024-01-06T03:54:51;3.47;;;3.10;;
85065;SDS011;75401;52.588;13.224;2024-01-06T03:57:16;3.70;;;3.30;;
85065;SDS011;75401;52.588;13.224;2024-01-06T03:59:42;3.93;;;3.37;;
85065;SDS011;75401;52.588;13.224;2024-01-06T04:02:07;3.45;;;3.15;;
85065;SDS011;75401;52.588;13.224;2024-01-06T04:04:33;3.23;;;2.73;;
85065;SDS011;75401;52.588;13.224;2024-01-06T04:06:59;3.38;;;3.08;;
85065;SDS011;75401;52.588;13.224;2024-01-06T04:09:24;4.33;;;3.47;;
85065;SDS011;75401;52.588;13.224;2024-01-06T04:11:49;3.53;;;2.80;;
85065;SDS011;75401;52.588;13.224;2024-01-06T04:14:14;3.53;;;3.20;;
85065;SDS011;75401;52.588;13.224;2024-01-06T04:16:40;3.93;;;3.47;;
85065;SDS011;75401;52.588;13.224;2024-01-06T04:19:05;4.03;;;3.50;;
85065;SDS011;75401;52.588;13.224;2024-01-06T04:21:31;4.93;;;3.80;;
85065;SDS011;75401;52.588;13.224;2024-01-06T04:23:57;3.15;;;2.80;;
85065;SDS011;75401;52.588;13.224;2024-01-06T04:26:23;4.10;;;3.30;;
85065;SDS011;75401;52.588;13.224;2024-01-06T04:28:48;5.33;;;3.67;;
85065;SDS011;75401;52.588;13.224;2024-01-06T04:31:14;4.00;;;3.20;;
85065;SDS011;75401;52.588;13.224;2024-01-06T04:33:39;4.07;;;3.07;;
85065;SDS011;75401;52.588;13.224;2024-01-06T04:36:05;3.73;;;2.90;;
85065;SDS011;75401;52.588;13.224;2024-01-06T04:38:31;3.45;;;2.85;;
85065;SDS011;75401;52.588;13.224;2024-01-06T04:40:57;4.55;;;3.08;;
85065;SDS011;75401;52.588;13.224;2024-01-06T04:43:22;3.63;;;2.93;;
85065;SDS011;75401;52.588;13.224;2024-01-06T04:45:47;3.63;;;3.10;;
85065;SDS011;75401;52.588;13.224;2024-01-06T04:48:13;3.83;;;3.43;;
85065;SDS011;75401;52.588;13.224;2024-01-06T04:50:38;4.00;;;3.22;;
85065;SDS011;75401;52.588;13.224;2024-01-06T04:53:04;3.77;;;3.20;;
85065;SDS011;75401;52.588;13.224;2024-01-06T04:55:30;4.17;;;3.20;;
85065;SDS011;75401;52.588;13.224;2024-01-06T04:57:55;4.35;;;3.55;;
85065;SDS011;75401;52.588;13.224;2024-01-06T05:00:21;4.43;;;3.80;;
85065;SDS011;75401;52.588;13.224;2024-01-06T05:02:46;3.33;;;2.57;;
85065;SDS011;75401;52.588;13.224;2024-01-06T05:05:12;4.30;;;3.08;;
85065;SDS011;75401;52.588;13.224;2024-01-06T05:07:38;4.17;;;3.50;;
85065;SDS011;75401;52.588;13.224;2024-01-06T05:10:03;4.10;;;3.47;;
85065;SDS011;75401;52.588;13.224;2024-01-06T05:12:30;5.00;;;3.50;;
85065;SDS011;75401;52.588;13.224;2024-01-06T05:14:56;4.35;;;3.33;;
85065;SDS011;75401;52.588;13.224;2024-01-06T05:17:21;4.43;;;3.53;;
85065;SDS011;75401;52.588;13.224;2024-01-06T05:19:47;4.30;;;3.10;;
85065;SDS011;75401;52.588;13.224;2024-01-06T05:22:12;4.37;;;3.57;;
85065;SDS011;75401;52.588;13.224;2024-01-06T05:24:38;3.70;;;2.97;;
85065;SDS011;75401;52.588;13.224;2024-01-06T05:27:03;3.33;;;2.93;;
85065;SDS011;75401;52.588;13.224;2024-01-06T05:29:30;5.05;;;3.63;;
85065;SDS011;75401;52.588;13.224;2024-01-06T05:31:56;4.55;;;3.38;;
85065;SDS011;75401;52.588;13.224;2024-01-06T05:34:21;3.53;;;2.83;;
85065;SDS011;75401;52.588;13.224;2024-01-06T05:36:46;4.77;;;3.40;;
85065;SDS011;75401;52.588;13.224;2024-01-06T05:39:12;3.50;;;2.90;;
85065;SDS011;75401;52.588;13.224;2024-01-06T05:41:37;4.30;;;3.20;;
85065;SDS011;75401;52.588;13.224;2024-01-06T05:44:03;4.00;;;3.45;;
85065;SDS011;75401;52.588;13.224;2024-01-06T05:46:29;3.20;;;2.72;;
85065;SDS011;75401;52.588;13.224;2024-01-06T05:48:55;4.82;;;3.65;;
85065;SDS011;75401;52.588;13.224;2024-01-06T05:51:21;4.70;;;3.80;;
85065;SDS011;75401;52.588;13.224;2024-01-06T05:53:46;4.35;;;3.30;;
85065;SDS011;75401;52.588;13.224;2024-01-06T05:56:12;4.37;;;3.07;;
85065;SDS011;75401;52.588;13.224;2024-01-06T05:58:46;4.10;;;3.50;;
85065;SDS011;75401;52.588;13.224;2024-01-06T06:01:11;4.50;;;3.23;;
85065;SDS011;75401;52.588;13.224;2024-01-06T06:03:38;4.37;;;3.37;;
85065;SDS011;75401;52.588;13.224;2024-01-06T06:06:04;5.15;;;3.33;;
85065;SDS011;75401;52.588;13.224;2024-01-06T06:08:29;4.87;;;3.47;;
85065;SDS011;75401;52.588;13.224;2024-01-06T06:10:54;5.13;;;3.67;;
85065;SDS011;75401;52.588;13.224;2024-01-06T06:13:20;3.77;;;3.10;;
85065;SDS011;75401;52.588;13.224;2024-01-06T06:15:45;4.23;;;3.70;;
85065;SDS011;75401;52.588;13.224;2024-01-06T06:18:10;4.00;;;3.20;;
85065;SDS011;75401;52.588;13.224;2024-01-06T06:20:37;4.00;;;3.17;;
85065;SDS011;75401;52.588;13.224;2024-01-06T06:23:02;4.07;;;3.30;;
85065;SDS011;75401;52.588;13.224;2024-01-06T06:25:27;4.75;;;3.78;;
85065;SDS011;75401;52.588;13.224;2024-01-06T06:27:53;4.50;;;3.33;;
85065;SDS011;75401;52.588;13.224;2024-01-06T06:30:18;4.63;;;3.33;;
85065;SDS011;75401;52.588;13.224;2024-01-06T06:32:43;3.57;;;3.20;;
85065;SDS011;75401;52.588;13.224;2024-01-06T06:35:09;4.43;;;3.55;;
85065;SDS011;75401;52.588;13.224;2024-01-06T06:37:35;4.37;;;3.63;;
85065;SDS011;75401;52.588;13.224;2024-01-06T06:40:01;4.28;;;2.90;;
85065;SDS011;75401;52.588;13.224;2024-01-06T06:42:26;4.50;;;3.40;;
85065;SDS011;75401;52.588;13.224;2024-01-06T06:44:51;4.23;;;3.50;;
85065;SDS011;75401;52.588;13.224;2024-01-06T06:47:17;4.22;;;3.38;;
85065;SDS011;75401;52.588;13.224;2024-01-06T06:49:42;4.50;;;3.50;;
85065;SDS011;75401;52.588;13.224;2024-01-06T06:52:08;4.33;;;3.23;;
85065;SDS011;75401;52.588;13.224;2024-01-06T06:54:34;4.47;;;3.60;;
85065;SDS011;75401;52.588;13.224;2024-01-06T06:57:00;5.63;;;3.53;;
85065;SDS011;75401;52.588;13.224;2024-01-06T06:59:25;5.67;;;3.40;;
85065;SDS011;75401;52.588;13.224;2024-01-06T07:01:51;4.63;;;3.75;;
85065;SDS011;75401;52.588;13.224;2024-01-06T07:04:16;4.67;;;3.80;;
85065;SDS011;75401;52.588;13.224;2024-01-06T07:06:42;4.90;;;3.43;;
85065;SDS011;75401;52.588;13.224;2024-01-06T07:09:07;4.63;;;3.23;;
85065;SDS011;75401;52.588;13.224;2024-01-06T07:11:34;3.90;;;3.23;;
85065;SDS011;75401;52.588;13.224;2024-01-06T07:13:59;4.50;;;3.55;;
85065;SDS011;75401;52.588;13.224;2024-01-06T07:16:26;4.00;;;3.33;;
85065;SDS011;75401;52.588;13.224;2024-01-06T07:18:51;4.73;;;3.30;;
85065;SDS011;75401;52.588;13.224;2024-01-06T07:21:16;4.20;;;3.10;;
85065;SDS011;75401;52.588;13.224;2024-01-06T07:23:42;4.70;;;3.60;;
85065;SDS011;75401;52.588;13.224;2024-01-06T07:26:07;4.70;;;3.40;;
85065;SDS011;75401;52.588;13.224;2024-01-06T07:28:33;4.10;;;3.63;;
85065;SDS011;75401;52.588;13.224;2024-01-06T07:30:59;4.25;;;2.97;;
85065;SDS011;75401;52.588;13.224;2024-01-06T07:33:25;5.90;;;3.60;;
85065;SDS011;75401;52.588;13.224;2024-01-06T07:35:50;4.47;;;3.00;;
85065;SDS011;75401;52.588;13.224;2024-01-06T07:38:16;4.50;;;3.20;;
85065;SDS011;75401;52.588;13.224;2024-01-06T07:40:41;5.53;;;3.97;;
85065;SDS011;75401;52.588;13.224;2024-01-06T07:43:06;4.23;;;3.20;;
85065;SDS011;75401;52.588;13.224;2024-01-06T07:45:33;4.40;;;3.85;;
85065;SDS011;75401;52.588;13.224;2024-01-06T07:47:58;4.60;;;4.05;;
85065;SDS011;75401;52.588;13.224;2024-01-06T07:50:24;4.20;;;3.53;;
85065;SDS011;75401;52.588;13.224;2024-01-06T07:52:49;5.05;;;3.30;;
85065;SDS011;75401;52.588;13.224;2024-01-06T07:55:15;6.07;;;3.80;;
85065;SDS011;75401;52.588;13.224;2024-01-06T07:57:40;4.97;;;4.10;;
85065;SDS011;75401;52.588;13.224;2024-01-06T08:00:06;4.72;;;3.72;;
85065;SDS011;75401;52.588;13.224;2024-01-06T08:02:34;4.70;;;4.20;;
85065;SDS011;75401;52.588;13.224;2024-01-06T08:04:59;4.05;;;3.45;;
85065;SDS011;75401;52.588;13.224;2024-01-06T08:07:24;4.80;;;3.87;;
85065;SDS011;75401;52.588;13.224;2024-01-06T08:09:50;4.80;;;3.43;;
85065;SDS011;75401;52.588;13.224;2024-01-06T08:12:15;6.67;;;4.30;;
85065;SDS011;75401;52.588;13.224;2024-01-06T08:14:41;5.45;;;3.95;;
85065;SDS011;75401;52.588;13.224;2024-01-06T08:17:06;5.13;;;3.73;;
85065;SDS011;75401;52.588;13.224;2024-01-06T08:19:32;5.03;;;3.70;;
85065;SDS011;75401;52.588;13.224;2024-01-06T08:21:58;4.90;;;3.65;;
85065;SDS011;75401;52.588;13.224;2024-01-06T08:24:23;5.47;;;4.00;;
85065;SDS011;75401;52.588;13.224;2024-01-06T08:26:48;5.87;;;4.40;;
85065;SDS011;75401;52.588;13.224;2024-01-06T08:29:13;5.37;;;4.47;;
85065;SDS011;75401;52.588;13.224;2024-01-06T08:31:39;6.60;;;4.60;;
85065;SDS011;75401;52.588;13.224;2024-01-06T08:34:04;6.03;;;3.87;;
85065;SDS011;75401;52.588;13.224;2024-01-06T08:36:31;5.33;;;3.97;;
85065;SDS011;75401;52.588;13.224;2024-01-06T08:38:56;4.97;;;4.20;;
85065;SDS011;75401;52.588;13.224;2024-01-06T08:41:21;5.97;;;3.83;;
85065;SDS011;75401;52.588;13.224;2024-01-06T08:43:47;4.87;;;3.90;;
85065;SDS011;75401;52.588;13.224;2024-01-06T08:46:12;5.10;;;4.17;;
85065;SDS011;75401;52.588;13.224;2024-01-06T08:48:37;5.90;;;3.97;;
85065;SDS011;75401;52.588;13.224;2024-01-06T08:51:03;6.67;;;4.70;;
85065;SDS011;75401;52.588;13.224;2024-01-06T08:53:30;5.57;;;3.75;;
85065;SDS011;75401;52.588;13.224;2024-01-06T08:55:55;4.85;;;4.07;;
85065;SDS011;75401;52.588;13.224;2024-01-06T08:58:20;6.67;;;4.10;;
85065;SDS011;75401;52.588;13.224;2024-01-06T09:00:45;6.70;;;3.83;;
85065;SDS011;75401;52.588;13.224;2024-01-06T09:03:11;5.83;;;4.60;;
85065;SDS011;75401;52.588;13.224;2024-01-06T09:05:36;4.70;;;3.60;;
85065;SDS011;75401;52.588;13.224;2024-01-06T09:08:01;6.97;;;4.43;;
85065;SDS011;75401;52.588;13.224;2024-01-06T09:10:28;6.23;;;4.00;;
85065;SDS011;75401;52.588;13.224;2024-01-06T09:12:53;5.40;;;3.90;;
85065;SDS011;75401;52.588;13.224;2024-01-06T09:15:18;5.70;;;4.70;;
85065;SDS011;75401;52.588;13.224;2024-01-06T09:17:43;6.10;;;5.10;;
85065;SDS011;75401;52.588;13.224;2024-01-06T09:20:09;5.30;;;4.30;;
85065;SDS011;75401;52.588;13.224;2024-01-06T09:22:35;5.18;;;4.20;;
85065;SDS011;75401;52.588;13.224;2024-01-06T09:25:00;6.13;;;4.23;;
85065;SDS011;75401;52.588;13.224;2024-01-06T09:27:27;5.63;;;3.83;;
85065;SDS011;75401;52.588;13.224;2024-01-06T09:29:52;5.22;;;3.80;;
85065;SDS011;75401;52.588;13.224;2024-01-06T09:32:17;5.67;;;4.70;;
85065;SDS011;75401;52.588;13.224;2024-01-06T09:34:43;5.97;;;4.30;;
85065;SDS011;75401;52.588;13.224;2024-01-06T09:37:08;5.82;;;4.40;;
85065;SDS011;75401;52.588;13.224;2024-01-06T09:39:34;6.20;;;5.00;;
85065;SDS011;75401;52.588;13.224;2024-01-06T09:41:59;7.33;;;4.90;;
85065;SDS011;75401;52.588;13.224;2024-01-06T09:44:26;5.63;;;4.47;;
85065;SDS011;75401;52.588;13.224;2024-01-06T09:46:51;6.28;;;4.45;;
85065;SDS011;75401;52.588;13.224;2024-01-06T09:49:17;5.65;;;4.57;;
85065;SDS011;75401;52.588;13.224;2024-01-06T09:51:48;6.03;;;3.78;;
85065;SDS011;75401;52.588;13.224;2024-01-06T09:54:14;6.22;;;4.95;;
85065;SDS011;75401;52.588;13.224;2024-01-06T09:56:39;6.37;;;4.53;;
85065;SDS011;75401;52.588;13.224;2024-01-06T09:59:05;5.70;;;4.25;;
85065;SDS011;75401;52.588;13.224;2024-01-06T10:01:31;6.23;;;4.40;;
85065;SDS011;75401;52.588;13.224;2024-01-06T10:03:57;5.75;;;4.05;;
85065;SDS011;75401;52.588;13.224;2024-01-06T10:06:22;5.70;;;4.30;;
85065;SDS011;75401;52.588;13.224;2024-01-06T10:08:48;8.17;;;4.70;;
85065;SDS011;75401;52.588;13.224;2024-01-06T10:11:14;5.38;;;4.28;;
85065;SDS011;75401;52.588;13.224;2024-01-06T10:13:39;5.75;;;4.97;;
85065;SDS011;75401;52.588;13.224;2024-01-06T10:16:05;6.35;;;4.28;;
85065;SDS011;75401;52.588;13.224;2024-01-06T10:18:32;6.38;;;4.32;;
85065;SDS011;75401;52.588;13.224;2024-01-06T10:20:58;5.13;;;3.50;;
85065;SDS011;75401;52.588;13.224;2024-01-06T10:23:23;5.30;;;4.40;;
85065;SDS011;75401;52.588;13.224;2024-01-06T10:25:51;5.15;;;4.32;;
85065;SDS011;75401;52.588;13.224;2024-01-06T10:28:17;4.38;;;3.90;;
85065;SDS011;75401;52.588;13.224;2024-01-06T10:30:42;5.03;;;4.13;;
85065;SDS011;75401;52.588;13.224;2024-01-06T10:33:08;4.97;;;4.23;;
85065;SDS011;75401;52.588;13.224;2024-01-06T10:35:35;5.82;;;4.40;;
85065;SDS011;75401;52.588;13.224;2024-01-06T10:38:00;4.72;;;3.15;;
85065;SDS011;75401;52.588;13.224;2024-01-06T10:40:26;5.43;;;4.07;;
85065;SDS011;75401;52.588;13.224;2024-01-06T10:42:51;5.57;;;4.20;;
85065;SDS011;75401;52.588;13.224;2024-01-06T10:45:17;4.53;;;3.75;;
85065;SDS011;75401;52.588;13.224;2024-01-06T10:47:43;5.45;;;3.60;;
85065;SDS011;75401;52.588;13.224;2024-01-06T10:50:09;5.38;;;4.05;;
85065;SDS011;75401;52.588;13.224;2024-01-06T10:52:36;5.03;;;4.32;;
85065;SDS011;75401;52.588;13.224;2024-01-06T10:55:02;4.35;;;3.90;;
85065;SDS011;75401;52.588;13.224;2024-01-06T10:57:30;4.40;;;3.50;;
85065;SDS011;75401;52.588;13.224;2024-01-06T10:59:55;4.43;;;3.28;;
85065;SDS011;75401;52.588;13.224;2024-01-06T11:02:22;5.30;;;3.67;;
85065;SDS011;75401;52.588;13.224;2024-01-06T11:04:48;4.00;;;3.60;;
85065;SDS011;75401;52.588;13.224;2024-01-06T11:07:14;5.07;;;4.00;;
85065;SDS011;75401;52.588;13.224;2024-01-06T11:09:43;4.70;;;3.60;;
85065;SDS011;75401;52.588;13.224;2024-01-06T11:12:13;5.07;;;4.25;;
85065;SDS011;75401;52.588;13.224;2024-01-06T11:14:38;4.57;;;4.00;;
85065;SDS011;75401;52.588;13.224;2024-01-06T11:17:04;5.20;;;3.65;;
85065;SDS011;75401;52.588;13.224;2024-01-06T11:19:42;5.13;;;4.07;;
85065;SDS011;75401;52.588;13.224;2024-01-06T11:22:21;5.25;;;4.40;;
85065;SDS011;75401;52.588;13.224;2024-01-06T11:24:52;3.78;;;3.00;;
85065;SDS011;75401;52.588;13.224;2024-01-06T11:27:18;4.72;;;4.20;;
85065;SDS011;75401;52.588;13.224;2024-01-06T11:29:45;4.25;;;3.78;;
85065;SDS011;75401;52.588;13.224;2024-01-06T11:32:20;4.88;;;3.92;;
85065;SDS011;75401;52.588;13.224;2024-01-06T11:34:50;4.32;;;3.70;;
85065;SDS011;75401;52.588;13.224;2024-01-06T11:37:17;4.13;;;3.63;;
85065;SDS011;75401;52.588;13.224;2024-01-06T11:39:44;4.13;;;3.50;;
85065;SDS011;75401;52.588;13.224;2024-01-06T11:42:10;3.88;;;3.33;;
85065;SDS011;75401;52.588;13.224;2024-01-06T11:44:36;3.75;;;3.30;;
85065;SDS011;75401;52.588;13.224;2024-01-06T11:47:02;4.72;;;3.80;;
85065;SDS011;75401;52.588;13.224;2024-01-06T11:49:29;5.07;;;3.72;;
85065;SDS011;75401;52.588;13.224;2024-01-06T11:51:55;4.20;;;3.23;;
85065;SDS011;75401;52.588;13.224;2024-01-06T11:54:21;4.60;;;3.90;;
85065;SDS011;75401;52.588;13.224;2024-01-06T11:56:47;4.03;;;3.40;;
85065;SDS011;75401;52.588;13.224;2024-01-06T11:59:14;4.18;;;3.78;;
85065;SDS011;75401;52.588;13.224;2024-01-06T12:01:39;5.65;;;3.80;;
85065;SDS011;75401;52.588;13.224;2024-01-06T12:04:05;5.30;;;3.60;;
85065;SDS011;75401;52.588;13.224;2024-01-06T12:06:31;5.03;;;4.20;;
85065;SDS011;75401;52.588;13.224;2024-01-06T12:09:02;4.07;;;3.30;;
85065;SDS011;75401;52.588;13.224;2024-01-06T12:11:28;4.43;;;3.22;;
85065;SDS011;75401;52.588;13.224;2024-01-06T12:13:54;3.00;;;2.70;;
85065;SDS011;75401;52.588;13.224;2024-01-06T12:16:20;4.37;;;3.40;;
85065;SDS011;75401;52.588;13.224;2024-01-06T12:18:45;4.45;;;3.50;;
85065;SDS011;75401;52.588;13.224;2024-01-06T12:21:11;3.90;;;3.17;;
85065;SDS011;75401;52.588;13.224;2024-01-06T12:23:36;3.60;;;3.10;;
85065;SDS011;75401;52.588;13.224;2024-01-06T12:26:01;4.13;;;3.73;;
85065;SDS011;75401;52.588;13.224;2024-01-06T12:28:27;3.93;;;3.53;;
85065;SDS011;75401;52.588;13.224;2024-01-06T12:30:52;4.10;;;3.27;;
85065;SDS011;75401;52.588;13.224;2024-01-06T12:33:20;3.35;;;2.85;;
85065;SDS011;75401;52.588;13.224;2024-01-06T12:35:45;3.53;;;3.10;;
85065;SDS011;75401;52.588;13.224;2024-01-06T12:38:10;4.03;;;3.20;;
85065;SDS011;75401;52.588;13.224;2024-01-06T12:40:36;3.90;;;2.97;;
85065;SDS011;75401;52.588;13.224;2024-01-06T12:43:02;3.50;;;3.20;;
85065;SDS011;75401;52.588;13.224;2024-01-06T12:45:27;5.00;;;3.65;;
85065;SDS011;75401;52.588;13.224;2024-01-06T12:47:52;4.27;;;3.53;;
85065;SDS011;75401;52.588;13.224;2024-01-06T12:50:19;3.93;;;3.27;;
85065;SDS011;75401;52.588;13.224;2024-01-06T12:52:44;3.88;;;2.70;;
85065;SDS011;75401;52.588;13.224;2024-01-06T12:55:10;4.23;;;3.53;;
85065;SDS011;75401;52.588;13.224;2024-01-06T12:57:35;4.23;;;2.93;;
85065;SDS011;75401;52.588;13.224;2024-01-06T13:00:00;4.10;;;2.90;;
85065;SDS011;75401;52.588;13.224;2024-01-06T13:02:26;3.65;;;2.83;;
85065;SDS011;75401;52.588;13.224;2024-01-06T13:04:51;3.73;;;3.20;;
85065;SDS011;75401;52.588;13.224;2024-01-06T13:07:18;3.63;;;3.10;;
85065;SDS011;75401;52.588;13.224;2024-01-06T13:09:43;3.80;;;3.13;;
85065;SDS011;75401;52.588;13.224;2024-01-06T13:12:08;3.53;;;3.23;;
85065;SDS011;75401;52.588;13.224;2024-01-06T13:14:34;3.95;;;3.03;;
85065;SDS011;75401;52.588;13.224;2024-01-06T13:16:59;3.70;;;3.07;;
85065;SDS011;75401;52.588;13.224;2024-01-06T13:19:25;2.90;;;2.60;;
85065;SDS011;75401;52.588;13.224;2024-01-06T13:21:50;3.25;;;2.70;;
85065;SDS011;75401;52.588;13.224;2024-01-06T13:24:17;3.30;;;2.70;;
85065;SDS011;75401;52.588;13.224;2024-01-06T13:26:42;3.45;;;2.90;;
85065;SDS011;75401;52.588;13.224;2024-01-06T13:29:07;4.47;;;2.93;;
85065;SDS011;75401;52.588;13.224;2024-01-06T13:31:32;3.17;;;2.80;;
85065;SDS011;75401;52.588;13.224;2024-01-06T13:33:58;3.40;;;2.70;;
85065;SDS011;75401;52.588;13.224;2024-01-06T13:36:23;3.73;;;2.90;;
85065;SDS011;75401;52.588;13.224;2024-01-06T13:38:48;4.03;;;3.37;;
85065;SDS011;75401;52.588;13.224;2024-01-06T13:41:15;3.90;;;3.30;;
85065;SDS011;75401;52.588;13.224;2024-01-06T13:43:40;3.63;;;3.00;;
85065;SDS011;75401;52.588;13.224;2024-01-06T13:46:06;3.30;;;2.70;;
85065;SDS011;75401;52.588;13.224;2024-01-06T13:48:31;3.47;;;2.60;;
85065;SDS011;75401;52.588;13.224;2024-01-06T13:50:57;3.57;;;3.10;;
85065;SDS011;75401;52.588;13.224;2024-01-06T13:53:24;3.97;;;2.85;;
85065;SDS011;75401;52.588;13.224;2024-01-06T13:55:49;3.55;;;2.88;;
85065;SDS011;75401;52.588;13.224;2024-01-06T13:58:16;3.13;;;2.25;;
85065;SDS011;75401;52.588;13.224;2024-01-06T14:00:42;3.88;;;2.80;;
85065;SDS011;75401;52.588;13.224;2024-01-06T14:03:07;3.70;;;2.65;;
85065;SDS011;75401;52.588;13.224;2024-01-06T14:05:33;3.07;;;2.33;;
85065;SDS011;75401;52.588;13.224;2024-01-06T14:07:58;3.35;;;2.78;;
85065;SDS011;75401;52.588;13.224;2024-01-06T14:10:23;3.10;;;2.80;;
85065;SDS011;75401;52.588;13.224;2024-01-06T14:12:49;2.73;;;2.13;;
85065;SDS011;75401;52.588;13.224;2024-01-06T14:15:15;3.20;;;2.35;;
85065;SDS011;75401;52.588;13.224;2024-01-06T14:17:41;2.92;;;2.17;;
85065;SDS011;75401;52.588;13.224;2024-01-06T14:20:07;2.37;;;2.00;;
85065;SDS011;75401;52.588;13.224;2024-01-06T14:22:33;2.65;;;2.13;;
85065;SDS011;75401;52.588;13.224;2024-01-06T14:24:58;3.20;;;2.47;;